Data for 04/21/2006

Time Sea-Level Adjusted Pressure Absolute Pressure Temperature Relative Humidity Dew Point   
(mb) (inHg) (mb) (inHg) (C) (F) (%) (C) (F)
00:05 1016 30 845 24.95 7.5 45.6 46 -3.5 25.8
00:10 1016 30 845 24.95 7.8 46 45 -3.3 26.1
00:15 1016 30 845 24.95 7.6 45.7 46 -3.2 26.3
00:20 1016 30 845 24.95 7.4 45.4 46 -3.4 25.9
00:25 1016 30 845 24.95 7.5 45.4 47 -3.2 26.2
00:30 1016 30 845 24.95 7.5 45.4 47 -3.2 26.2
00:35 1016 30 845 24.95 7.5 45.6 46 -3.5 25.7
00:40 1016 30 845 24.95 7.6 45.6 46 -3.2 26.2
00:45 1016 30 845 24.95 7.6 45.8 46 -3.2 26.3
00:50 1016 30 845 24.95 7.6 45.6 48 -2.8 27
00:55 1016 30 845 24.95 7.4 45.3 48 -2.9 26.9
01:00 1016 30 845 24.95 7.3 45.1 48 -3 26.6
01:05 1016 30 845 24.95 7.4 45.3 47 -3.2 26.3
01:10 1016 30 845 24.95 7.2 44.9 49 -2.8 27
01:15 1016 30 845 24.95 6.8 44.2 49 -3.2 26.3
01:20 1016 30 845 24.95 7.3 45.2 46 -3.4 25.8
01:25 1016 30 845 24.95 7.3 45.1 51 -2.1 28.1
01:30 1016 30 845 24.95 6.3 43.3 54 -2.2 28
01:35 1016 30 845 24.95 6.5 43.6 51 -3 26.5
01:40 1016 30 845 24.95 7.1 44.8 49 -3 26.6
01:45 1016 30 845 24.95 7.2 45 50 -2.6 27.4
01:50 1016 30 845 24.95 6.9 44.4 51 -2.6 27.3
01:55 1016 30 845 24.95 6.8 44.2 52 -2.4 27.6
02:00 1016 30 845 24.95 6.5 43.7 52 -2.6 27.3
02:05 1016 30 845 24.95 6.7 44 50 -2.9 26.7
02:10 1016 30 845 24.95 6.8 44.3 51 -2.5 27.4
02:15 1016 30 845 24.95 6.8 44.2 51 -2.6 27.4
02:20 1016 30 845 24.95 6.9 44.3 51 -2.6 27.4
02:25 1016 30 845 24.95 6.8 44.2 52 -2.4 27.7
02:30 1016 30 845 24.95 6.5 43.6 53 -2.5 27.4
02:35 1016 30 845 24.95 6.3 43.4 53 -2.5 27.5
02:40 1016 30 845 24.95 6.1 43.1 54 -2.5 27.5
02:45 1016 30 845 24.95 6.2 43.1 53 -2.6 27.3
02:50 1016 30 845 24.95 6.3 43.3 53 -2.5 27.5
02:55 1016 30 845 24.95 6.5 43.7 52 -2.6 27.4
03:00 1016 30 845 24.95 6.8 44.3 50 -2.8 27
03:05 1016 30 845 24.95 6.1 43 54 -2.4 27.6
03:10 1016 30 845 24.95 5.6 42.1 53 -3.1 26.4
03:15 1016 30 845 24.95 6.7 44 49 -3.3 26.1
03:20 1016 30 845 24.95 7.1 44.8 49 -2.9 26.7
03:25 1016 30 845 24.95 6.9 44.5 51 -2.6 27.3
03:30 1016 30 845 24.95 6 42.9 51 -3.2 26.2
03:35 1016 30 845 24.95 6.2 43.2 48 -4 24.8
03:40 1016 30 845 24.95 6.8 44.3 50 -2.9 26.7
03:45 1016 30 845 24.95 6.1 42.9 53 -2.8 26.9
03:50 1016 30 845 24.95 6 42.7 53 -3 26.6
03:55 1016 30 845 24.95 6.2 43.2 53 -2.7 27.1
04:00 1016 30 845 24.95 6.1 43 52 -3.1 26.5
04:05 1016 30 845 24.95 6 42.8 52 -3 26.6
04:10 1016 30 845 24.95 5.8 42.5 53 -3.1 26.5
04:15 1016 30 845 24.95 5.5 41.9 54 -3.1 26.4
04:20 1016 30 845 24.95 5.1 41.2 56 -2.9 26.8
04:25 1016 30 845 24.95 4.5 40.2 60 -2.6 27.3
04:30 1016 30 845 24.95 4.2 39.6 59 -3.1 26.4
04:35 1016 30 845 24.95 4.6 40.3 58 -2.9 26.7
04:40 1016 30 845 24.95 4.9 40.8 57 -2.9 26.9
04:45 1016 30 845 24.95 4.9 40.9 56 -3.2 26.3
04:50 1016 30 845 24.95 5.2 41.3 56 -2.9 26.8
04:55 1016 30 845 24.95 5.1 41.2 56 -2.9 26.7
05:00 1016 30 845 24.95 4.9 40.9 55 -3.3 26.1
05:05 1016 30 845 24.95 5 41 56 -3 26.6
05:10 1016 30 845 24.95 4.9 40.8 56 -3.1 26.5
05:15 1016 30 845 24.95 4.9 40.7 57 -2.9 26.8
05:20 1016 30 845 24.95 4.6 40.3 59 -2.8 27
05:25 1016 30 845 24.95 4.3 39.8 61 -2.6 27.3
05:30 1016 30 845 24.95 4.2 39.6 60 -2.9 26.8
05:35 1016 30 845 24.95 4.4 39.9 59 -2.9 26.8
05:40 1016 30 845 24.95 4.4 40 60 -2.7 27.1
05:45 1016 30 845 24.95 4.4 40 59 -3 26.7
05:50 1016 30 845 24.95 4.7 40.5 57 -3 26.6
05:55 1016 30 845 24.95 4.9 40.8 56 -3.1 26.4
06:00 1016 30 845 24.95 5.1 41.2 55 -3.1 26.3
06:05 1016 30 845 24.95 5.8 42.4 52 -3.2 26.2
06:10 1016 30 845 24.95 5.8 42.4 53 -3.1 26.5
06:15 1016 30 845 24.95 5.5 42 55 -2.9 26.9
06:20 1016 30 845 24.95 5.3 41.5 55 -2.9 26.7
06:25 1016 30 845 24.95 5.1 41.1 56 -3 26.7
06:30 1016 30 845 24.95 4.9 40.8 56 -3.2 26.3
06:35 1016 30 845 24.95 5 41.1 54 -3.5 25.8
06:40 1016 30 845 24.95 5 41.1 54 -3.5 25.6
06:45 1016 30 845 24.95 5 41 53 -3.9 24.9
06:50 1016 30 845 24.95 5.3 41.6 52 -3.6 25.5
06:55 1016 30 845 24.95 5.5 41.9 52 -3.6 25.5
07:00 1016 30 845 24.95 5.3 41.5 53 -3.5 25.7
07:05 1016 30 845 24.95 5.2 41.4 53 -3.5 25.7
07:10 1016 30 845 24.95 5.1 41.2 54 -3.4 26
07:15 1016 30 845 24.95 4.9 40.9 55 -3.2 26.2
07:20 1016 30 845 24.95 5.2 41.4 53 -3.6 25.5
07:25 1016 30 845 24.95 6 42.7 51 -3.5 25.7
07:30 1016 30 845 24.95 6.4 43.5 50 -3.3 26
07:35 1016 30 845 24.95 6.7 44.1 48 -3.6 25.6
07:40 1016 30 845 24.95 6.9 44.5 48 -3.3 26.1
07:45 1016 30 845 24.95 7.3 45.1 46 -3.4 25.9
07:50 1016 30 845 24.95 7.3 45.1 49 -2.7 27.2
07:55 1016 30 845 24.95 6.5 43.7 52 -2.7 27.1
08:00 1016 30 845 24.95 6.4 43.5 49 -3.5 25.8
08:05 1016 30 845 24.95 6.6 43.9 51 -2.7 27.1
08:10 1016 30 845 24.95 7.1 44.7 45 -4.2 24.5
08:15 1016 30 845 24.95 7.7 45.8 45 -3.4 25.8
08:20 1016 30 845 24.95 8.2 46.8 42 -3.9 25.1
08:25 1016 30 845 24.95 9.2 48.5 40 -3.9 25
08:30 1016 30 845 24.95 9.4 48.8 40 -3.4 25.9
08:35 1016 30 845 24.95 9.6 49.4 39 -3.7 25.3
08:40 1016 30 845 24.95 10 50 39 -3.3 26
08:45 1016 30 845 24.95 10.1 50.2 39 -3.2 26.2
08:50 1016 30 845 24.95 9.7 49.5 40 -3.1 26.5
08:55 1016 30 845 24.95 9.5 49.1 39 -3.7 25.3
09:00 1016 30 845 24.95 9.4 48.9 40 -3.3 26
09:05 1016 30 845 24.95 9.5 49.1 39 -3.7 25.4
09:10 1016 30 845 24.95 10.2 50.4 39 -3.1 26.4
09:15 1016 30 845 24.95 10.5 51 41 -2 28.4
09:20 1016 30 845 24.95 11.1 51.9 38 -2.7 27.1
09:25 1016 30 845 24.95 11.8 53.3 35 -2.9 26.8
09:30 1016 30 845 24.95 12 53.5 35 -2.9 26.7
09:35 1016 30 845 24.95 12.1 53.7 35 -2.9 26.7
09:40 1016 30 845 24.95 12.2 54 35 -2.9 26.8
09:45 1016 30 845 24.95 12.6 54.6 35 -2.6 27.4
09:50 1016 30 845 24.95 12.6 54.6 34 -2.9 26.7
09:55 1016 30 845 24.95 12.8 55.1 33 -3.1 26.3
10:00 1016 30 845 24.95 13.1 55.5 32 -3.1 26.4
10:05 1016 30 845 24.95 13.1 55.6 32 -3.2 26.2
10:10 1016 30 845 24.95 12.5 54.6 34 -2.8 27
10:15 1016 30 845 24.95 12.7 54.8 34 -2.9 26.8
10:20 1016 30 845 24.95 13.4 56.1 32 -3.1 26.5
10:25 1016 30 845 24.95 13.8 56.8 30 -3.2 26.2
10:30 1016 30 845 24.95 14.2 57.5 30 -3.2 26.2
10:35 1016 30 845 24.95 14.6 58.3 30 -2.9 26.9
10:40 1016 30 845 24.95 14.7 58.4 29 -2.9 26.7
10:45 1016 30 845 24.95 13.9 56.9 31 -2.8 27
10:50 1016 30 845 24.95 14.5 58 30 -2.8 26.9
10:55 1015 29.97 845 24.95 14.4 58 31 -2.4 27.6
11:00 1015 29.97 845 24.95 14.1 57.3 30 -3.2 26.2
11:05 1015 29.97 845 24.95 14.1 57.5 30 -3.2 26.2
11:10 1015 29.97 844 24.92 14.3 57.8 28 -4.1 24.6
11:15 1015 29.97 845 24.95 14.8 58.6 27 -4.2 24.4
11:20 1015 29.97 844 24.92 15 59 27 -3.9 24.9
11:25 1015 29.97 844 24.92 16.1 61.1 24 -4.2 24.5
11:30 1015 29.97 844 24.92 16.4 61.5 26 -3.1 26.4
11:35 1015 29.97 844 24.92 16.6 61.9 25 -3.4 25.9
11:40 1015 29.97 844 24.92 16.9 62.3 25 -3.1 26.5
11:45 1015 29.97 844 24.92 16.9 62.4 24 -3.8 25.1
11:50 1015 29.97 844 24.92 16.7 62.1 26 -3 26.6
11:55 1015 29.97 844 24.92 16.3 61.3 24 -4 24.7
12:00 1015 29.97 844 24.92 17.1 62.7 23 -3.9 24.9
12:05 1015 29.97 844 24.92 17.5 63.5 24 -3.4 25.8
12:10 1015 29.97 844 24.92 18.1 64.5 24 -2.7 27.1
12:15 1015 29.97 844 24.92 17.7 63.8 24 -2.9 26.7
12:20 1015 29.97 844 24.92 18.1 64.5 23 -3.1 26.4
12:25 1014 29.94 844 24.92 17.4 63.2 25 -2.8 27
12:30 1014 29.94 844 24.92 18.3 64.9 24 -2.3 27.9
12:35 1014 29.94 844 24.92 18.1 64.6 25 -1.9 28.5
12:40 1014 29.94 844 24.92 18.8 65.9 25 -1.4 29.4
12:45 1014 29.94 844 24.92 19 66.2 25 -1.4 29.5
12:50 1014 29.94 843 24.89 19.8 67.6 24 -1.4 29.5
12:55 1014 29.94 843 24.89 19.2 66.5 25 -1 30.2
13:00 1014 29.94 843 24.89 19.9 67.8 24 -1.1 29.9
13:05 1014 29.94 843 24.89 19.8 67.6 24 -1.2 29.8
13:10 1014 29.94 843 24.89 19.6 67.3 22 -2.3 27.9
13:15 1014 29.94 843 24.89 18.8 65.8 23 -2.8 26.9
13:20 1014 29.94 843 24.89 19.4 66.9 21 -3.1 26.5
13:25 1014 29.94 843 24.89 20.4 68.8 19 -4.2 24.5
13:30 1014 29.94 843 24.89 20.2 68.3 20 -3.3 26.1
13:35 1014 29.94 843 24.89 19.4 66.9 20 -3.9 25
13:40 1014 29.94 843 24.89 19.9 67.8 19 -4.3 24.3
13:45 1013 29.91 843 24.89 19.6 67.3 18 -5.5 22.1
13:50 1013 29.91 843 24.89 19.2 66.5 16 -7.3 18.9
13:55 1013 29.91 843 24.89 19.4 66.8 17 -6.4 20.4
14:00 1013 29.91 843 24.89 20.3 68.5 14 -7.5 18.5
14:05 1013 29.91 843 24.89 21.6 70.8 14 -7.3 18.8
14:10 1013 29.91 842 24.86 21.8 71.3 14 -6.9 19.6
14:15 1013 29.91 842 24.86 21.7 71 13 -7.3 18.8
14:20 1013 29.91 842 24.86 21.4 70.6 15 -6.3 20.7
14:25 1013 29.91 842 24.86 21.2 70.2 15 -6.1 21.1
14:30 1013 29.91 842 24.86 21.2 70.1 15 -6.1 21
14:35 1013 29.91 842 24.86 21.4 70.4 16 -5.5 22.1
14:40 1013 29.91 842 24.86 21.2 70.2 16 -5.6 21.8
14:45 1013 29.91 842 24.86 21.5 70.7 18 -3.8 25.1
14:50 1013 29.91 842 24.86 21.1 69.9 17 -5 22.9
14:55 1013 29.91 842 24.86 20.5 68.9 18 -4.8 23.3
15:00 1013 29.91 842 24.86 20.5 69 20 -3.1 26.4
15:05 1013 29.91 842 24.86 20.5 68.9 18 -4.5 23.9
15:10 1013 29.91 842 24.86 20.7 69.2 17 -4.9 23.2
15:15 1013 29.91 842 24.86 21.6 71 16 -5.2 22.7
15:20 1013 29.91 842 24.86 22.2 71.9 16 -4.6 23.7
15:25 1013 29.91 842 24.86 22.1 71.8 15 -5.4 22.2
15:30 1013 29.91 842 24.86 22 71.5 15 -6 21.2
15:35 1013 29.91 842 24.86 21.5 70.6 15 -5.9 21.5
15:40 1013 29.91 842 24.86 21.3 70.3 15 -6.5 20.3
15:45 1013 29.91 842 24.86 21.4 70.5 15 -6.5 20.3
15:50 1013 29.91 842 24.86 21.7 71 15 -5.8 21.6
15:55 1013 29.91 842 24.86 21.8 71.2 14 -6.8 19.8
16:00 1013 29.91 842 24.86 22.1 71.7 14 -6.3 20.6
16:05 1013 29.91 842 24.86 22.1 71.9 15 -5.9 21.4
16:10 1013 29.91 842 24.86 21.6 71 15 -6.1 21.1
16:15 1012 29.88 842 24.86 21.3 70.3 15 -6.3 20.7
16:20 1012 29.88 842 24.86 21.3 70.4 14 -6.9 19.6
16:25 1012 29.88 842 24.86 21.2 70.2 15 -6.4 20.5
16:30 1012 29.88 842 24.86 21.3 70.3 15 -6.5 20.3
16:35 1012 29.88 842 24.86 21 69.8 16 -5.8 21.5
16:40 1012 29.88 842 24.86 21 69.7 15 -6.6 20.2
16:45 1012 29.88 842 24.86 21.7 71 15 -6.2 20.8
16:50 1012 29.88 842 24.86 22.2 72 14 -6.2 20.8
16:55 1012 29.88 842 24.86 22.1 71.9 14 -6.2 20.8
17:00 1012 29.88 841 24.83 22.4 72.4 14 -6.2 20.9
17:05 1012 29.88 841 24.83 22.5 72.4 14 -5.9 21.3
17:10 1012 29.88 841 24.83 22 71.6 15 -5.9 21.4
17:15 1012 29.88 841 24.83 21.7 71.1 15 -6.2 20.8
17:20 1012 29.88 841 24.83 21 69.8 15 -6.6 20.1
17:25 1012 29.88 841 24.83 21.1 69.9 15 -6.8 19.7
17:30 1012 29.88 841 24.83 21.3 70.4 14 -7 19.4
17:35 1012 29.88 841 24.83 20.8 69.4 15 -6.9 19.5
17:40 1012 29.88 841 24.83 20.5 68.9 15 -6.9 19.6
17:45 1012 29.88 841 24.83 20.9 69.6 15 -7 19.5
17:50 1012 29.88 841 24.83 20.5 69 15 -7 19.3
17:55 1012 29.88 841 24.83 20.8 69.5 15 -6.6 20.1
18:00 1012 29.88 841 24.83 21.4 70.5 14 -6.8 19.8
18:05 1012 29.88 841 24.83 21.3 70.3 15 -6.5 20.4
18:10 1012 29.88 841 24.83 20.9 69.6 15 -6.9 19.6
18:15 1012 29.88 841 24.83 21.2 70.1 14 -6.8 19.7
18:20 1012 29.88 841 24.83 21.4 70.6 14 -6.9 19.6
18:25 1012 29.88 841 24.83 21.5 70.7 14 -6.7 19.9
18:30 1012 29.88 841 24.83 21 69.8 15 -6.9 19.6
18:35 1012 29.88 841 24.83 20.9 69.6 15 -6.7 19.9
18:40 1012 29.88 841 24.83 20.9 69.6 15 -6.7 20
18:45 1012 29.88 841 24.83 20.9 69.6 15 -6.5 20.4
18:50 1012 29.88 841 24.83 20.9 69.6 15 -6.8 19.8
18:55 1012 29.88 841 24.83 20.8 69.5 15 -6.4 20.6
19:00 1012 29.88 841 24.83 20.8 69.5 14 -7.1 19.2
19:05 1012 29.88 841 24.83 20.7 69.3 16 -6.2 20.8
19:10 1012 29.88 841 24.83 20.6 69.1 15 -6.5 20.3
19:15 1012 29.88 841 24.83 20.6 69.1 16 -6.3 20.6
19:20 1012 29.88 841 24.83 20.5 68.9 19 -4.1 24.7
19:25 1012 29.88 842 24.86 20.2 68.3 19 -4.2 24.4
19:30 1012 29.88 842 24.86 19.7 67.5 20 -4 24.7
19:35 1012 29.88 842 24.86 19.3 66.8 16 -7.3 18.9
19:40 1012 29.88 841 24.83 19.2 66.6 15 -7.7 18.1
19:45 1012 29.88 842 24.86 18.9 66 21 -3.9 24.9
19:50 1012 29.88 842 24.86 18.2 64.8 19 -5.9 21.4
19:55 1012 29.88 842 24.86 18.1 64.7 18 -6.3 20.7
20:00 1012 29.88 842 24.86 18.1 64.6 18 -6.8 19.8
20:05 1012 29.88 842 24.86 17.9 64.2 19 -5.8 21.5
20:10 1012 29.88 842 24.86 17.3 63.1 22 -4.7 23.5
20:15 1012 29.88 842 24.86 16.5 61.7 25 -3.7 25.3
20:20 1012 29.88 842 24.86 16.2 61.2 22 -5.4 22.3
20:25 1013 29.91 842 24.86 16.3 61.3 24 -4.4 24.1
20:30 1013 29.91 842 24.86 15.9 60.6 26 -3.7 25.4
20:35 1013 29.91 842 24.86 15.5 59.9 26 -3.7 25.4
20:40 1013 29.91 842 24.86 15.2 59.3 27 -3.6 25.5
20:45 1013 29.91 842 24.86 14.9 58.9 24 -5.2 22.6
20:50 1013 29.91 842 24.86 15.2 59.4 23 -5.5 22.2
20:55 1013 29.91 842 24.86 15.6 60 22 -6 21.1
21:00 1013 29.91 842 24.86 15.6 60 22 -5.8 21.5
21:05 1013 29.91 842 24.86 15.3 59.5 23 -5.8 21.5
21:10 1013 29.91 842 24.86 15.1 59.3 23 -5.8 21.5
21:15 1013 29.91 842 24.86 14.8 58.6 24 -5.7 21.7
21:20 1013 29.91 842 24.86 14.8 58.6 23 -6 21.2
21:25 1013 29.91 842 24.86 14.9 58.8 23 -5.7 21.7
21:30 1013 29.91 842 24.86 14.9 58.8 23 -5.9 21.4
21:35 1013 29.91 842 24.86 14.5 58.1 25 -5.2 22.6
21:40 1013 29.91 842 24.86 14.1 57.4 26 -5.1 22.8
21:45 1013 29.91 842 24.86 13.2 55.8 30 -3.8 25.1
21:50 1013 29.91 842 24.86 12.3 54.1 31 -4.3 24.3
21:55 1013 29.91 842 24.86 12.3 54.1 29 -5 23
22:00 1013 29.91 842 24.86 12.7 54.8 28 -5.3 22.4
22:05 1013 29.91 842 24.86 12.9 55.3 27 -5.6 21.9
22:10 1013 29.91 842 24.86 12.9 55.2 27 -5.5 22.1
22:15 1013 29.91 842 24.86 12.8 55 27 -5.8 21.5
22:20 1013 29.91 842 24.86 12.9 55.3 26 -5.9 21.4
22:25 1013 29.91 842 24.86 13 55.4 26 -6.1 20.9
22:30 1013 29.91 842 24.86 13.2 55.8 26 -5.9 21.4
22:35 1013 29.91 842 24.86 12.8 55.1 27 -5.5 22.2
22:40 1013 29.91 842 24.86 12.5 54.5 27 -6.1 21
22:45 1013 29.91 842 24.86 12.5 54.6 27 -6.2 20.9
22:50 1013 29.91 842 24.86 12.5 54.5 27 -5.7 21.7
22:55 1013 29.91 842 24.86 12.3 54.2 28 -5.7 21.7
23:00 1013 29.91 842 24.86 12.1 53.7 28 -6 21.2
23:05 1013 29.91 842 24.86 12.2 53.9 28 -5.9 21.4
23:10 1013 29.91 842 24.86 12.1 53.7 28 -5.7 21.7
23:15 1013 29.91 842 24.86 12.3 54.1 27 -6.1 21
23:20 1013 29.91 842 24.86 12.3 54.2 27 -5.9 21.3
23:25 1013 29.91 842 24.86 12.2 54 26 -6.5 20.3
23:30 1013 29.91 842 24.86 12.5 54.6 27 -6.1 21.1
23:35 1013 29.91 842 24.86 12.6 54.6 26 -6.3 20.6
23:40 1013 29.91 842 24.86 12.6 54.7 26 -6.1 21
23:45 1013 29.91 842 24.86 12.5 54.5 27 -5.9 21.4
23:50 1013 29.91 842 24.86 12.3 54.2 27 -6 21.3
23:55 1013 29.91 842 24.86 12.2 53.9 28 -5.9 21.5
24:00 1013 29.91 842 24.86 12.2 54 27 -6.1 21